sensor_id;sensor_type;location;lat;lon;timestamp;temperature;humidity
4429;DHT22;2227;47.810;8.810;2022-08-04T03:58:38;19.40;99.90
4429;DHT22;2227;47.810;8.810;2022-08-04T04:07:44;19.30;99.90
4429;DHT22;2227;47.810;8.810;2022-08-04T04:27:17;19.20;99.90
4429;DHT22;2227;47.810;8.810;2022-08-04T04:38:37;19.30;99.90
4429;DHT22;2227;47.810;8.810;2022-08-04T04:47:20;19.30;99.90
4429;DHT22;2227;47.810;8.810;2022-08-04T04:50:14;19.30;99.90
4429;DHT22;2227;47.810;8.810;2022-08-04T04:52:52;19.30;99.90
4429;DHT22;2227;47.810;8.810;2022-08-04T04:55:42;19.40;99.90
4429;DHT22;2227;47.810;8.810;2022-08-04T04:58:17;19.40;99.90
4429;DHT22;2227;47.810;8.810;2022-08-04T05:12:22;19.70;99.90
4429;DHT22;2227;47.810;8.810;2022-08-04T05:15:11;19.70;99.90
4429;DHT22;2227;47.810;8.810;2022-08-04T05:17:42;19.80;99.90
4429;DHT22;2227;47.810;8.810;2022-08-04T05:22:56;20.00;99.90
4429;DHT22;2227;47.810;8.810;2022-08-04T05:25:39;20.10;99.90
4429;DHT22;2227;47.810;8.810;2022-08-04T05:31:20;20.30;99.90
4429;DHT22;2227;47.810;8.810;2022-08-04T05:33:55;20.40;99.90
4429;DHT22;2227;47.810;8.810;2022-08-04T05:36:35;20.40;99.90
4429;DHT22;2227;47.810;8.810;2022-08-04T05:39:11;20.50;99.90
4429;DHT22;2227;47.810;8.810;2022-08-04T05:41:41;20.60;99.90
4429;DHT22;2227;47.810;8.810;2022-08-04T05:44:13;20.60;99.90
4429;DHT22;2227;47.810;8.810;2022-08-04T05:46:42;20.70;99.90
4429;DHT22;2227;47.810;8.810;2022-08-04T05:49:09;20.80;99.90
4429;DHT22;2227;47.810;8.810;2022-08-04T05:51:47;20.90;99.90
4429;DHT22;2227;47.810;8.810;2022-08-04T05:54:17;21.00;99.90
4429;DHT22;2227;47.810;8.810;2022-08-04T05:56:44;21.00;99.90
4429;DHT22;2227;47.810;8.810;2022-08-04T05:59:11;21.10;99.90
4429;DHT22;2227;47.810;8.810;2022-08-04T06:01:40;21.20;99.90
4429;DHT22;2227;47.810;8.810;2022-08-04T06:04:29;21.30;99.90
4429;DHT22;2227;47.810;8.810;2022-08-04T06:06:56;21.40;99.90
4429;DHT22;2227;47.810;8.810;2022-08-04T06:09:23;21.50;99.90
4429;DHT22;2227;47.810;8.810;2022-08-04T06:11:51;21.60;99.90
4429;DHT22;2227;47.810;8.810;2022-08-04T06:14:42;21.60;99.90
4429;DHT22;2227;47.810;8.810;2022-08-04T06:17:12;21.70;99.90
4429;DHT22;2227;47.810;8.810;2022-08-04T06:20:01;21.80;99.90
4429;DHT22;2227;47.810;8.810;2022-08-04T06:22:52;21.90;99.90
4429;DHT22;2227;47.810;8.810;2022-08-04T06:25:21;22.00;99.90
4429;DHT22;2227;47.810;8.810;2022-08-04T06:27:49;22.10;99.90
4429;DHT22;2227;47.810;8.810;2022-08-04T06:30:17;22.30;99.90
4429;DHT22;2227;47.810;8.810;2022-08-04T06:32:47;22.30;99.90
4429;DHT22;2227;47.810;8.810;2022-08-04T06:35:16;22.50;99.90
4429;DHT22;2227;47.810;8.810;2022-08-04T06:37:45;22.60;99.90
4429;DHT22;2227;47.810;8.810;2022-08-04T06:40:14;22.80;99.80
4429;DHT22;2227;47.810;8.810;2022-08-04T06:43:04;22.90;99.90
4429;DHT22;2227;47.810;8.810;2022-08-04T06:45:33;23.00;99.90
4429;DHT22;2227;47.810;8.810;2022-08-04T06:48:03;23.10;99.90
4429;DHT22;2227;47.810;8.810;2022-08-04T06:50:33;23.30;99.00
4429;DHT22;2227;47.810;8.810;2022-08-04T06:53:20;23.40;98.60
4429;DHT22;2227;47.810;8.810;2022-08-04T06:55:47;23.50;98.10
4429;DHT22;2227;47.810;8.810;2022-08-04T06:58:15;23.60;97.70
4429;DHT22;2227;47.810;8.810;2022-08-04T07:00:44;23.70;97.10
4429;DHT22;2227;47.810;8.810;2022-08-04T07:03:11;23.90;96.80
4429;DHT22;2227;47.810;8.810;2022-08-04T07:05:40;24.00;96.00
4429;DHT22;2227;47.810;8.810;2022-08-04T07:08:09;24.10;94.90
4429;DHT22;2227;47.810;8.810;2022-08-04T07:10:36;24.20;93.20
4429;DHT22;2227;47.810;8.810;2022-08-04T07:13:04;24.30;92.40
4429;DHT22;2227;47.810;8.810;2022-08-04T07:15:33;24.40;92.40
4429;DHT22;2227;47.810;8.810;2022-08-04T07:18:01;24.50;92.50
4429;DHT22;2227;47.810;8.810;2022-08-04T07:20:31;24.70;92.60
4429;DHT22;2227;47.810;8.810;2022-08-04T07:23:05;24.80;92.30
4429;DHT22;2227;47.810;8.810;2022-08-04T07:25:34;24.90;91.50
4429;DHT22;2227;47.810;8.810;2022-08-04T07:28:23;25.00;91.70
4429;DHT22;2227;47.810;8.810;2022-08-04T07:30:52;25.10;91.80
4429;DHT22;2227;47.810;8.810;2022-08-04T07:33:19;25.30;91.60
4429;DHT22;2227;47.810;8.810;2022-08-04T07:35:52;25.30;91.10
4429;DHT22;2227;47.810;8.810;2022-08-04T07:38:40;25.50;90.80
4429;DHT22;2227;47.810;8.810;2022-08-04T07:41:21;25.70;90.40
4429;DHT22;2227;47.810;8.810;2022-08-04T07:44:04;25.70;90.40
4429;DHT22;2227;47.810;8.810;2022-08-04T07:46:32;25.90;89.80
4429;DHT22;2227;47.810;8.810;2022-08-04T07:49:00;26.00;89.50
4429;DHT22;2227;47.810;8.810;2022-08-04T07:51:28;26.00;90.10
4429;DHT22;2227;47.810;8.810;2022-08-04T07:53:57;26.10;90.00
4429;DHT22;2227;47.810;8.810;2022-08-04T07:56:25;26.20;90.20
4429;DHT22;2227;47.810;8.810;2022-08-04T07:58:53;26.40;90.00
4429;DHT22;2227;47.810;8.810;2022-08-04T08:01:20;26.50;89.80
4429;DHT22;2227;47.810;8.810;2022-08-04T08:03:48;26.60;90.00
4429;DHT22;2227;47.810;8.810;2022-08-04T08:06:15;26.80;90.00
4429;DHT22;2227;47.810;8.810;2022-08-04T08:09:00;26.90;88.80
4429;DHT22;2227;47.810;8.810;2022-08-04T08:11:47;27.10;88.20
4429;DHT22;2227;47.810;8.810;2022-08-04T08:14:35;27.20;88.10
4429;DHT22;2227;47.810;8.810;2022-08-04T08:17:02;27.40;88.20
4429;DHT22;2227;47.810;8.810;2022-08-04T08:19:32;27.70;88.10
4429;DHT22;2227;47.810;8.810;2022-08-04T08:22:01;28.00;87.10
4429;DHT22;2227;47.810;8.810;2022-08-04T08:24:29;28.20;85.80
4429;DHT22;2227;47.810;8.810;2022-08-04T08:26:57;28.40;84.90
4429;DHT22;2227;47.810;8.810;2022-08-04T08:29:26;28.50;84.40
4429;DHT22;2227;47.810;8.810;2022-08-04T08:31:55;28.60;84.50
4429;DHT22;2227;47.810;8.810;2022-08-04T08:34:31;28.70;84.10
4429;DHT22;2227;47.810;8.810;2022-08-04T08:37:09;28.80;83.60
4429;DHT22;2227;47.810;8.810;2022-08-04T08:39:44;28.90;82.80
4429;DHT22;2227;47.810;8.810;2022-08-04T08:42:30;29.20;82.00
4429;DHT22;2227;47.810;8.810;2022-08-04T08:48:54;29.50;80.00
4429;DHT22;2227;47.810;8.810;2022-08-04T08:59:38;29.70;77.70
4429;DHT22;2227;47.810;8.810;2022-08-04T09:11:03;30.20;75.50
4429;DHT22;2227;47.810;8.810;2022-08-04T09:13:39;30.50;73.90
4429;DHT22;2227;47.810;8.810;2022-08-04T09:16:30;30.60;73.30
4429;DHT22;2227;47.810;8.810;2022-08-04T09:19:14;31.00;72.50
4429;DHT22;2227;47.810;8.810;2022-08-04T09:24:52;31.80;68.80
4429;DHT22;2227;47.810;8.810;2022-08-04T09:27:21;32.10;68.60
4429;DHT22;2227;47.810;8.810;2022-08-04T09:30:05;32.90;65.70
4429;DHT22;2227;47.810;8.810;2022-08-04T09:32:40;33.60;63.80
4429;DHT22;2227;47.810;8.810;2022-08-04T09:43:46;34.80;57.80
4429;DHT22;2227;47.810;8.810;2022-08-04T09:49:37;35.90;54.20
4429;DHT22;2227;47.810;8.810;2022-08-04T10:00:44;37.50;49.00
4429;DHT22;2227;47.810;8.810;2022-08-04T10:03:13;37.50;48.50
4429;DHT22;2227;47.810;8.810;2022-08-04T10:11:08;39.30;44.20
4429;DHT22;2227;47.810;8.810;2022-08-04T10:16:46;38.90;43.90
4429;DHT22;2227;47.810;8.810;2022-08-04T10:19:34;39.20;42.80
4429;DHT22;2227;47.810;8.810;2022-08-04T10:22:25;39.70;41.90
4429;DHT22;2227;47.810;8.810;2022-08-04T10:25:29;40.40;40.90
4429;DHT22;2227;47.810;8.810;2022-08-04T10:28:20;40.80;39.30
4429;DHT22;2227;47.810;8.810;2022-08-04T10:30:58;40.90;38.80
4429;DHT22;2227;47.810;8.810;2022-08-04T10:33:40;40.10;39.20
4429;DHT22;2227;47.810;8.810;2022-08-04T10:36:09;39.50;40.00
4429;DHT22;2227;47.810;8.810;2022-08-04T10:38:45;40.10;39.70
4429;DHT22;2227;47.810;8.810;2022-08-04T10:44:13;40.60;38.40
4429;DHT22;2227;47.810;8.810;2022-08-04T10:46:46;40.50;38.40
4429;DHT22;2227;47.810;8.810;2022-08-04T10:49:28;39.90;38.60
4429;DHT22;2227;47.810;8.810;2022-08-04T10:52:17;39.40;39.00
4429;DHT22;2227;47.810;8.810;2022-08-04T11:00:41;39.90;37.80
4429;DHT22;2227;47.810;8.810;2022-08-04T11:03:34;40.70;36.60
4429;DHT22;2227;47.810;8.810;2022-08-04T11:06:05;40.90;36.40
4429;DHT22;2227;47.810;8.810;2022-08-04T11:08:38;41.60;35.40
4429;DHT22;2227;47.810;8.810;2022-08-04T11:11:23;42.30;34.30
4429;DHT22;2227;47.810;8.810;2022-08-04T11:16:28;42.00;33.80
4429;DHT22;2227;47.810;8.810;2022-08-04T11:21:33;43.10;33.00
4429;DHT22;2227;47.810;8.810;2022-08-04T11:24:23;43.50;32.00
4429;DHT22;2227;47.810;8.810;2022-08-04T11:27:11;42.90;31.40
4429;DHT22;2227;47.810;8.810;2022-08-04T11:32:21;42.60;32.10
4429;DHT22;2227;47.810;8.810;2022-08-04T11:34:58;42.40;31.60
4429;DHT22;2227;47.810;8.810;2022-08-04T11:37:31;42.10;31.90
4429;DHT22;2227;47.810;8.810;2022-08-04T11:40:40;41.70;31.70
4429;DHT22;2227;47.810;8.810;2022-08-04T11:43:41;41.30;31.70
4429;DHT22;2227;47.810;8.810;2022-08-04T11:51:33;40.70;31.90
4429;DHT22;2227;47.810;8.810;2022-08-04T11:54:02;40.60;32.00
4429;DHT22;2227;47.810;8.810;2022-08-04T11:56:30;40.80;31.70
4429;DHT22;2227;47.810;8.810;2022-08-04T11:59:05;41.00;31.80
4429;DHT22;2227;47.810;8.810;2022-08-04T12:01:34;41.30;31.50
4429;DHT22;2227;47.810;8.810;2022-08-04T12:04:12;41.50;31.10
4429;DHT22;2227;47.810;8.810;2022-08-04T12:07:01;41.40;30.50
4429;DHT22;2227;47.810;8.810;2022-08-04T12:10:23;40.80;31.10
4429;DHT22;2227;47.810;8.810;2022-08-04T12:16:23;39.30;32.80
4429;DHT22;2227;47.810;8.810;2022-08-04T12:19:06;39.10;32.80
4429;DHT22;2227;47.810;8.810;2022-08-04T12:21:44;38.50;33.50
4429;DHT22;2227;47.810;8.810;2022-08-04T12:24:25;38.70;34.00
4429;DHT22;2227;47.810;8.810;2022-08-04T12:26:57;39.30;32.70
4429;DHT22;2227;47.810;8.810;2022-08-04T12:29:26;39.40;32.50
4429;DHT22;2227;47.810;8.810;2022-08-04T12:38:06;38.00;34.20
4429;DHT22;2227;47.810;8.810;2022-08-04T12:40:48;38.30;33.30
4429;DHT22;2227;47.810;8.810;2022-08-04T12:46:03;37.90;33.80
4429;DHT22;2227;47.810;8.810;2022-08-04T12:48:32;38.00;33.60
4429;DHT22;2227;47.810;8.810;2022-08-04T12:51:01;37.60;34.10
4429;DHT22;2227;47.810;8.810;2022-08-04T12:53:42;37.30;34.20
4429;DHT22;2227;47.810;8.810;2022-08-04T12:56:24;37.70;34.40
4429;DHT22;2227;47.810;8.810;2022-08-04T12:58:52;38.30;33.10
4429;DHT22;2227;47.810;8.810;2022-08-04T13:01:26;38.60;33.00
4429;DHT22;2227;47.810;8.810;2022-08-04T13:04:18;38.80;32.80
4429;DHT22;2227;47.810;8.810;2022-08-04T13:07:02;39.20;32.90
4429;DHT22;2227;47.810;8.810;2022-08-04T13:09:32;39.60;31.30
4429;DHT22;2227;47.810;8.810;2022-08-04T13:12:04;39.80;30.80
4429;DHT22;2227;47.810;8.810;2022-08-04T13:14:35;40.10;31.50
4429;DHT22;2227;47.810;8.810;2022-08-04T13:17:03;40.60;30.00
4429;DHT22;2227;47.810;8.810;2022-08-04T13:19:34;41.00;29.20
4429;DHT22;2227;47.810;8.810;2022-08-04T13:22:07;41.30;29.00
4429;DHT22;2227;47.810;8.810;2022-08-04T13:24:36;41.40;28.90
4429;DHT22;2227;47.810;8.810;2022-08-04T13:27:24;41.30;27.50
4429;DHT22;2227;47.810;8.810;2022-08-04T13:29:55;40.70;28.20
4429;DHT22;2227;47.810;8.810;2022-08-04T13:32:29;41.00;28.60
4429;DHT22;2227;47.810;8.810;2022-08-04T13:34:59;41.30;28.50
4429;DHT22;2227;47.810;8.810;2022-08-04T13:37:44;41.40;27.90
4429;DHT22;2227;47.810;8.810;2022-08-04T13:40:12;41.20;27.50
4429;DHT22;2227;47.810;8.810;2022-08-04T13:42:40;40.80;27.20
4429;DHT22;2227;47.810;8.810;2022-08-04T13:45:12;40.40;27.70
4429;DHT22;2227;47.810;8.810;2022-08-04T13:47:41;40.30;27.50
4429;DHT22;2227;47.810;8.810;2022-08-04T13:50:16;40.30;26.70
4429;DHT22;2227;47.810;8.810;2022-08-04T13:52:45;40.30;26.60
4429;DHT22;2227;47.810;8.810;2022-08-04T13:55:30;40.50;26.30
4429;DHT22;2227;47.810;8.810;2022-08-04T13:58:23;40.20;26.10
4429;DHT22;2227;47.810;8.810;2022-08-04T14:01:01;39.90;25.70
4429;DHT22;2227;47.810;8.810;2022-08-04T14:11:38;39.80;27.00
4429;DHT22;2227;47.810;8.810;2022-08-04T14:14:27;40.10;26.10
4429;DHT22;2227;47.810;8.810;2022-08-04T14:17:13;40.50;26.30
4429;DHT22;2227;47.810;8.810;2022-08-04T14:25:14;40.70;25.20
4429;DHT22;2227;47.810;8.810;2022-08-04T14:27:54;40.30;25.60
4429;DHT22;2227;47.810;8.810;2022-08-04T14:30:31;40.30;27.00
4429;DHT22;2227;47.810;8.810;2022-08-04T14:33:07;40.60;25.50
4429;DHT22;2227;47.810;8.810;2022-08-04T14:35:58;40.90;25.50
4429;DHT22;2227;47.810;8.810;2022-08-04T14:38:55;40.80;24.80
4429;DHT22;2227;47.810;8.810;2022-08-04T14:41:30;40.00;25.90
4429;DHT22;2227;47.810;8.810;2022-08-04T14:44:09;39.40;26.10
4429;DHT22;2227;47.810;8.810;2022-08-04T14:46:48;39.10;26.30
4429;DHT22;2227;47.810;8.810;2022-08-04T14:49:16;39.40;26.80
4429;DHT22;2227;47.810;8.810;2022-08-04T14:51:53;39.60;26.50
4429;DHT22;2227;47.810;8.810;2022-08-04T14:54:28;39.60;26.20
4429;DHT22;2227;47.810;8.810;2022-08-04T14:56:57;39.40;26.40
4429;DHT22;2227;47.810;8.810;2022-08-04T14:59:26;39.30;26.80
4429;DHT22;2227;47.810;8.810;2022-08-04T15:02:10;39.30;26.90
4429;DHT22;2227;47.810;8.810;2022-08-04T15:04:39;39.20;26.60
4429;DHT22;2227;47.810;8.810;2022-08-04T15:07:07;39.00;26.20
4429;DHT22;2227;47.810;8.810;2022-08-04T15:09:35;38.60;26.90
4429;DHT22;2227;47.810;8.810;2022-08-04T15:12:03;38.70;27.40
4429;DHT22;2227;47.810;8.810;2022-08-04T15:14:31;38.80;26.50
4429;DHT22;2227;47.810;8.810;2022-08-04T15:17:04;38.90;26.40
4429;DHT22;2227;47.810;8.810;2022-08-04T15:19:38;38.90;25.90
4429;DHT22;2227;47.810;8.810;2022-08-04T15:22:05;38.60;26.10
4429;DHT22;2227;47.810;8.810;2022-08-04T15:24:43;38.70;26.60
4429;DHT22;2227;47.810;8.810;2022-08-04T15:27:18;38.70;26.20
4429;DHT22;2227;47.810;8.810;2022-08-04T15:29:46;38.90;26.20
4429;DHT22;2227;47.810;8.810;2022-08-04T15:32:29;39.30;26.20
4429;DHT22;2227;47.810;8.810;2022-08-04T15:35:20;39.30;25.20
4429;DHT22;2227;47.810;8.810;2022-08-04T15:38:08;39.30;25.50
4429;DHT22;2227;47.810;8.810;2022-08-04T15:40:55;39.20;25.50
4429;DHT22;2227;47.810;8.810;2022-08-04T15:45:56;38.40;25.60
4429;DHT22;2227;47.810;8.810;2022-08-04T15:48:46;38.20;25.30
4429;DHT22;2227;47.810;8.810;2022-08-04T15:51:23;37.90;25.80
4429;DHT22;2227;47.810;8.810;2022-08-04T15:58:56;37.60;25.40
4429;DHT22;2227;47.810;8.810;2022-08-04T16:01:23;37.70;25.50
4429;DHT22;2227;47.810;8.810;2022-08-04T16:03:52;37.70;25.40
4429;DHT22;2227;47.810;8.810;2022-08-04T16:09:00;37.60;25.50
4429;DHT22;2227;47.810;8.810;2022-08-04T16:14:08;37.40;26.00
4429;DHT22;2227;47.810;8.810;2022-08-04T16:24:18;37.80;25.30
4429;DHT22;2227;47.810;8.810;2022-08-04T16:26:52;37.60;25.10
4429;DHT22;2227;47.810;8.810;2022-08-04T16:34:54;37.20;25.20
4429;DHT22;2227;47.810;8.810;2022-08-04T16:37:42;37.20;25.30
4429;DHT22;2227;47.810;8.810;2022-08-04T16:40:28;37.30;25.60
4429;DHT22;2227;47.810;8.810;2022-08-04T16:45:38;37.50;26.20
4429;DHT22;2227;47.810;8.810;2022-08-04T16:48:06;37.60;25.60
4429;DHT22;2227;47.810;8.810;2022-08-04T16:53:39;37.80;25.40
4429;DHT22;2227;47.810;8.810;2022-08-04T16:56:28;37.80;25.10
4429;DHT22;2227;47.810;8.810;2022-08-04T16:59:05;37.60;25.20
4429;DHT22;2227;47.810;8.810;2022-08-04T17:01:33;37.50;25.80
4429;DHT22;2227;47.810;8.810;2022-08-04T17:04:02;37.40;25.30
4429;DHT22;2227;47.810;8.810;2022-08-04T17:06:38;36.90;25.60
4429;DHT22;2227;47.810;8.810;2022-08-04T17:09:16;36.70;25.40
4429;DHT22;2227;47.810;8.810;2022-08-04T17:11:44;36.70;25.70
4429;DHT22;2227;47.810;8.810;2022-08-04T17:14:11;36.90;25.70
4429;DHT22;2227;47.810;8.810;2022-08-04T17:16:41;36.80;25.50
4429;DHT22;2227;47.810;8.810;2022-08-04T17:19:09;36.80;25.50
4429;DHT22;2227;47.810;8.810;2022-08-04T17:22:00;36.70;25.60
4429;DHT22;2227;47.810;8.810;2022-08-04T17:24:36;36.50;25.20
4429;DHT22;2227;47.810;8.810;2022-08-04T17:27:04;36.50;25.60
4429;DHT22;2227;47.810;8.810;2022-08-04T17:29:51;36.50;25.60
4429;DHT22;2227;47.810;8.810;2022-08-04T17:32:20;36.60;25.60
4429;DHT22;2227;47.810;8.810;2022-08-04T17:34:58;36.60;25.40
4429;DHT22;2227;47.810;8.810;2022-08-04T17:37:27;36.70;25.90
4429;DHT22;2227;47.810;8.810;2022-08-04T17:40:12;36.70;26.30
4429;DHT22;2227;47.810;8.810;2022-08-04T17:43:05;36.50;26.70
4429;DHT22;2227;47.810;8.810;2022-08-04T17:51:53;36.00;27.10
4429;DHT22;2227;47.810;8.810;2022-08-04T17:54:37;35.80;26.80
4429;DHT22;2227;47.810;8.810;2022-08-04T17:57:26;35.50;26.30
4429;DHT22;2227;47.810;8.810;2022-08-04T17:59:57;35.40;26.80
4429;DHT22;2227;47.810;8.810;2022-08-04T18:02:26;35.30;26.80
4429;DHT22;2227;47.810;8.810;2022-08-04T18:05:01;35.20;27.10
4429;DHT22;2227;47.810;8.810;2022-08-04T18:07:39;35.20;27.00
4429;DHT22;2227;47.810;8.810;2022-08-04T18:10:40;35.10;27.10
4429;DHT22;2227;47.810;8.810;2022-08-04T18:13:24;34.90;27.50
4429;DHT22;2227;47.810;8.810;2022-08-04T18:16:02;34.80;28.40
4429;DHT22;2227;47.810;8.810;2022-08-04T18:18:29;34.50;28.50
4429;DHT22;2227;47.810;8.810;2022-08-04T18:20:56;34.20;28.40
4429;DHT22;2227;47.810;8.810;2022-08-04T18:23:28;34.10;29.20
4429;DHT22;2227;47.810;8.810;2022-08-04T18:26:15;33.90;28.90
4429;DHT22;2227;47.810;8.810;2022-08-04T18:28:43;33.70;29.60
4429;DHT22;2227;47.810;8.810;2022-08-04T18:31:10;33.60;29.80
4429;DHT22;2227;47.810;8.810;2022-08-04T18:33:42;33.30;29.70
4429;DHT22;2227;47.810;8.810;2022-08-04T18:36:22;33.30;30.00
4429;DHT22;2227;47.810;8.810;2022-08-04T18:39:04;33.20;30.00
4429;DHT22;2227;47.810;8.810;2022-08-04T18:41:45;33.10;29.90
4429;DHT22;2227;47.810;8.810;2022-08-04T18:44:33;33.00;30.40
4429;DHT22;2227;47.810;8.810;2022-08-04T18:47:19;33.00;30.90
4429;DHT22;2227;47.810;8.810;2022-08-04T18:49:53;32.80;30.80
4429;DHT22;2227;47.810;8.810;2022-08-04T18:52:39;32.60;31.20
4429;DHT22;2227;47.810;8.810;2022-08-04T18:55:12;32.40;32.50
4429;DHT22;2227;47.810;8.810;2022-08-04T18:57:59;32.20;32.90
4429;DHT22;2227;47.810;8.810;2022-08-04T19:00:31;32.20;33.30
4429;DHT22;2227;47.810;8.810;2022-08-04T19:03:00;31.80;33.10
4429;DHT22;2227;47.810;8.810;2022-08-04T19:05:26;31.50;33.20
4429;DHT22;2227;47.810;8.810;2022-08-04T19:08:07;31.20;33.60
4429;DHT22;2227;47.810;8.810;2022-08-04T19:10:53;30.90;34.60
4429;DHT22;2227;47.810;8.810;2022-08-04T19:13:26;30.90;35.40
4429;DHT22;2227;47.810;8.810;2022-08-04T19:15:53;30.80;36.00
4429;DHT22;2227;47.810;8.810;2022-08-04T19:18:24;30.80;36.40
4429;DHT22;2227;47.810;8.810;2022-08-04T19:20:53;30.60;37.10
4429;DHT22;2227;47.810;8.810;2022-08-04T19:23:21;30.60;37.40
4429;DHT22;2227;47.810;8.810;2022-08-04T19:26:08;30.40;37.00
4429;DHT22;2227;47.810;8.810;2022-08-04T19:28:54;30.10;37.20
4429;DHT22;2227;47.810;8.810;2022-08-04T19:31:21;29.90;38.70
4429;DHT22;2227;47.810;8.810;2022-08-04T19:34:05;29.80;39.20
4429;DHT22;2227;47.810;8.810;2022-08-04T19:36:33;29.70;38.50
4429;DHT22;2227;47.810;8.810;2022-08-04T19:39:03;29.40;38.30
4429;DHT22;2227;47.810;8.810;2022-08-04T19:41:37;29.20;39.40
4429;DHT22;2227;47.810;8.810;2022-08-04T19:44:24;29.20;42.10
4429;DHT22;2227;47.810;8.810;2022-08-04T19:46:56;29.10;42.00
4429;DHT22;2227;47.810;8.810;2022-08-04T19:49:26;29.00;41.00
4429;DHT22;2227;47.810;8.810;2022-08-04T19:52:13;28.90;40.30
4429;DHT22;2227;47.810;8.810;2022-08-04T19:54:59;28.80;39.60
4429;DHT22;2227;47.810;8.810;2022-08-04T19:57:35;28.70;41.10
4429;DHT22;2227;47.810;8.810;2022-08-04T20:00:07;28.70;42.00
4429;DHT22;2227;47.810;8.810;2022-08-04T20:02:36;28.70;44.70
4429;DHT22;2227;47.810;8.810;2022-08-04T20:05:04;28.70;46.60
4429;DHT22;2227;47.810;8.810;2022-08-04T20:07:34;28.60;46.30
4429;DHT22;2227;47.810;8.810;2022-08-04T20:10:05;28.50;46.40
4429;DHT22;2227;47.810;8.810;2022-08-04T20:12:32;28.40;44.40
4429;DHT22;2227;47.810;8.810;2022-08-04T20:15:07;28.20;44.00
4429;DHT22;2227;47.810;8.810;2022-08-04T20:17:40;28.00;44.30
4429;DHT22;2227;47.810;8.810;2022-08-04T20:20:27;27.90;44.20
4429;DHT22;2227;47.810;8.810;2022-08-04T20:22:54;27.90;44.90
4429;DHT22;2227;47.810;8.810;2022-08-04T20:25:21;27.90;44.90
4429;DHT22;2227;47.810;8.810;2022-08-04T20:28:03;27.80;44.30
4429;DHT22;2227;47.810;8.810;2022-08-04T20:30:31;27.60;43.50
4429;DHT22;2227;47.810;8.810;2022-08-04T20:32:58;27.40;42.60
4429;DHT22;2227;47.810;8.810;2022-08-04T20:35:29;27.40;43.90
4429;DHT22;2227;47.810;8.810;2022-08-04T20:37:56;27.30;45.90
4429;DHT22;2227;47.810;8.810;2022-08-04T20:40:27;27.40;47.30
4429;DHT22;2227;47.810;8.810;2022-08-04T20:42:57;27.30;47.30
4429;DHT22;2227;47.810;8.810;2022-08-04T20:45:25;27.30;48.30
4429;DHT22;2227;47.810;8.810;2022-08-04T20:48:12;27.20;47.20
4429;DHT22;2227;47.810;8.810;2022-08-04T20:50:39;27.10;47.70
4429;DHT22;2227;47.810;8.810;2022-08-04T20:53:05;27.10;48.40
4429;DHT22;2227;47.810;8.810;2022-08-04T20:55:42;26.90;48.80
4429;DHT22;2227;47.810;8.810;2022-08-04T20:58:21;26.80;49.30
4429;DHT22;2227;47.810;8.810;2022-08-04T21:00:53;26.70;50.10
4429;DHT22;2227;47.810;8.810;2022-08-04T21:03:20;26.60;49.80
4429;DHT22;2227;47.810;8.810;2022-08-04T21:06:07;26.50;50.00
4429;DHT22;2227;47.810;8.810;2022-08-04T21:08:35;26.40;50.10
4429;DHT22;2227;47.810;8.810;2022-08-04T21:11:03;26.30;50.50
4429;DHT22;2227;47.810;8.810;2022-08-04T21:13:32;26.30;51.20
4429;DHT22;2227;47.810;8.810;2022-08-04T21:16:18;26.20;51.50
4429;DHT22;2227;47.810;8.810;2022-08-04T21:19:05;26.10;51.70
4429;DHT22;2227;47.810;8.810;2022-08-04T21:21:40;26.10;51.40
4429;DHT22;2227;47.810;8.810;2022-08-04T21:24:08;25.90;51.00
4429;DHT22;2227;47.810;8.810;2022-08-04T21:26:35;25.80;51.10
4429;DHT22;2227;47.810;8.810;2022-08-04T21:29:03;25.70;51.20
4429;DHT22;2227;47.810;8.810;2022-08-04T21:31:31;25.70;51.60
4429;DHT22;2227;47.810;8.810;2022-08-04T21:34:15;25.60;51.80
4429;DHT22;2227;47.810;8.810;2022-08-04T21:37:02;25.50;52.10
4429;DHT22;2227;47.810;8.810;2022-08-04T21:39:29;25.50;52.10
4429;DHT22;2227;47.810;8.810;2022-08-04T21:41:58;25.40;52.70
4429;DHT22;2227;47.810;8.810;2022-08-04T21:44:44;25.40;52.20
4429;DHT22;2227;47.810;8.810;2022-08-04T21:47:11;25.30;52.00
4429;DHT22;2227;47.810;8.810;2022-08-04T21:49:49;25.20;51.60
4429;DHT22;2227;47.810;8.810;2022-08-04T21:52:21;25.10;51.00
4429;DHT22;2227;47.810;8.810;2022-08-04T21:54:48;25.10;51.30
4429;DHT22;2227;47.810;8.810;2022-08-04T21:57:20;25.00;50.60
4429;DHT22;2227;47.810;8.810;2022-08-04T21:59:51;25.00;50.10
4429;DHT22;2227;47.810;8.810;2022-08-04T22:02:18;25.00;49.90
4429;DHT22;2227;47.810;8.810;2022-08-04T22:04:45;25.00;50.80
4429;DHT22;2227;47.810;8.810;2022-08-04T22:07:14;25.10;51.10
4429;DHT22;2227;47.810;8.810;2022-08-04T22:09:42;25.10;52.20
4429;DHT22;2227;47.810;8.810;2022-08-04T22:12:28;25.10;52.30
4429;DHT22;2227;47.810;8.810;2022-08-04T22:14:56;25.10;52.50
4429;DHT22;2227;47.810;8.810;2022-08-04T22:17:26;25.10;52.60
4429;DHT22;2227;47.810;8.810;2022-08-04T22:20:01;25.00;52.70
4429;DHT22;2227;47.810;8.810;2022-08-04T22:22:28;24.90;52.70
4429;DHT22;2227;47.810;8.810;2022-08-04T22:25:00;24.90;52.70
4429;DHT22;2227;47.810;8.810;2022-08-04T22:27:38;24.90;52.80
4429;DHT22;2227;47.810;8.810;2022-08-04T22:30:27;24.70;52.30
4429;DHT22;2227;47.810;8.810;2022-08-04T22:33:04;24.70;51.70
4429;DHT22;2227;47.810;8.810;2022-08-04T22:35:33;24.60;51.80
4429;DHT22;2227;47.810;8.810;2022-08-04T22:38:15;24.70;51.70
4429;DHT22;2227;47.810;8.810;2022-08-04T22:40:55;24.70;52.20
4429;DHT22;2227;47.810;8.810;2022-08-04T22:43:22;24.70;52.30
4429;DHT22;2227;47.810;8.810;2022-08-04T22:46:01;24.70;53.10
4429;DHT22;2227;47.810;8.810;2022-08-04T22:48:30;24.70;54.00
4429;DHT22;2227;47.810;8.810;2022-08-04T22:50:59;24.70;53.80
4429;DHT22;2227;47.810;8.810;2022-08-04T22:53:26;24.50;52.90
4429;DHT22;2227;47.810;8.810;2022-08-04T22:55:54;24.30;52.80
4429;DHT22;2227;47.810;8.810;2022-08-04T22:58:37;24.20;53.20
